sensor_id;sensor_type;location;lat;lon;timestamp;pressure;altitude;pressure_sealevel;temperature;humidity
74524;BME280;63074;44.696;10.358;2023-02-01T00:02:15;100472.47;;;2.13;100.00
74524;BME280;63074;44.696;10.358;2023-02-01T00:04:42;100462.50;;;2.23;100.00
74524;BME280;63074;44.696;10.358;2023-02-01T00:07:08;100458.09;;;1.99;100.00
74524;BME280;63074;44.696;10.358;2023-02-01T00:09:34;100447.06;;;2.27;100.00
74524;BME280;63074;44.696;10.358;2023-02-01T00:12:00;100440.72;;;1.89;100.00
74524;BME280;63074;44.696;10.358;2023-02-01T00:14:28;100437.84;;;2.07;100.00
74524;BME280;63074;44.696;10.358;2023-02-01T00:16:55;100431.72;;;2.06;100.00
74524;BME280;63074;44.696;10.358;2023-02-01T00:19:21;100430.88;;;2.14;100.00
74524;BME280;63074;44.696;10.358;2023-02-01T00:21:47;100429.72;;;2.08;100.00
74524;BME280;63074;44.696;10.358;2023-02-01T00:24:14;100416.84;;;2.36;100.00
74524;BME280;63074;44.696;10.358;2023-02-01T00:26:43;100418.59;;;2.52;100.00
74524;BME280;63074;44.696;10.358;2023-02-01T00:29:13;100427.09;;;2.70;100.00
74524;BME280;63074;44.696;10.358;2023-02-01T00:31:40;100417.78;;;2.74;100.00
74524;BME280;63074;44.696;10.358;2023-02-01T00:34:06;100408.78;;;3.06;100.00
74524;BME280;63074;44.696;10.358;2023-02-01T00:36:34;100411.00;;;2.94;100.00
74524;BME280;63074;44.696;10.358;2023-02-01T00:39:00;100403.66;;;3.04;100.00
74524;BME280;63074;44.696;10.358;2023-02-01T00:41:27;100409.06;;;3.11;100.00
74524;BME280;63074;44.696;10.358;2023-02-01T00:43:53;100410.72;;;3.12;100.00
74524;BME280;63074;44.696;10.358;2023-02-01T00:46:20;100421.41;;;3.04;100.00
74524;BME280;63074;44.696;10.358;2023-02-01T00:48:48;100422.22;;;3.04;100.00
74524;BME280;63074;44.696;10.358;2023-02-01T00:51:17;100421.94;;;2.99;100.00
74524;BME280;63074;44.696;10.358;2023-02-01T00:53:44;100410.53;;;2.91;100.00
74524;BME280;63074;44.696;10.358;2023-02-01T00:56:17;100421.41;;;2.81;100.00
74524;BME280;63074;44.696;10.358;2023-02-01T00:58:43;100414.94;;;2.53;100.00
74524;BME280;63074;44.696;10.358;2023-02-01T01:01:24;100426.22;;;2.16;100.00
74524;BME280;63074;44.696;10.358;2023-02-01T01:03:56;100433.84;;;2.11;100.00
74524;BME280;63074;44.696;10.358;2023-02-01T01:06:28;100435.03;;;2.08;100.00
74524;BME280;63074;44.696;10.358;2023-02-01T01:08:57;100443.03;;;2.00;100.00
74524;BME280;63074;44.696;10.358;2023-02-01T01:11:27;100435.75;;;1.94;100.00
74524;BME280;63074;44.696;10.358;2023-02-01T01:13:55;100441.03;;;2.02;100.00
74524;BME280;63074;44.696;10.358;2023-02-01T01:16:24;100439.63;;;2.22;100.00
74524;BME280;63074;44.696;10.358;2023-02-01T01:18:51;100428.69;;;2.25;100.00
74524;BME280;63074;44.696;10.358;2023-02-01T01:21:18;100436.16;;;2.22;100.00
74524;BME280;63074;44.696;10.358;2023-02-01T01:23:45;100429.53;;;2.18;100.00
74524;BME280;63074;44.696;10.358;2023-02-01T01:26:21;100432.53;;;2.07;100.00
74524;BME280;63074;44.696;10.358;2023-02-01T01:28:48;100435.66;;;2.18;100.00
74524;BME280;63074;44.696;10.358;2023-02-01T01:31:16;100438.31;;;2.18;100.00
74524;BME280;63074;44.696;10.358;2023-02-01T01:33:43;100438.72;;;1.91;100.00
74524;BME280;63074;44.696;10.358;2023-02-01T01:36:10;100438.56;;;2.00;100.00
74524;BME280;63074;44.696;10.358;2023-02-01T01:38:38;100443.28;;;2.21;100.00
74524;BME280;63074;44.696;10.358;2023-02-01T01:41:04;100443.25;;;2.29;100.00
74524;BME280;63074;44.696;10.358;2023-02-01T01:43:53;100445.25;;;2.27;100.00
74524;BME280;63074;44.696;10.358;2023-02-01T01:46:25;100445.28;;;2.19;100.00
74524;BME280;63074;44.696;10.358;2023-02-01T01:49:14;100434.19;;;2.16;100.00
74524;BME280;63074;44.696;10.358;2023-02-01T01:51:49;100441.78;;;2.19;100.00
74524;BME280;63074;44.696;10.358;2023-02-01T01:54:37;100437.47;;;2.18;100.00
74524;BME280;63074;44.696;10.358;2023-02-01T01:57:32;100441.03;;;1.94;100.00
74524;BME280;63074;44.696;10.358;2023-02-01T02:00:17;100434.09;;;1.85;100.00
74524;BME280;63074;44.696;10.358;2023-02-01T02:02:46;100431.84;;;1.49;100.00
74524;BME280;63074;44.696;10.358;2023-02-01T02:05:13;100439.16;;;1.39;100.00
74524;BME280;63074;44.696;10.358;2023-02-01T02:07:45;100434.19;;;1.28;100.00
74524;BME280;63074;44.696;10.358;2023-02-01T02:10:13;100439.47;;;1.60;100.00
74524;BME280;63074;44.696;10.358;2023-02-01T02:12:41;100440.28;;;1.53;100.00
74524;BME280;63074;44.696;10.358;2023-02-01T02:15:10;100433.84;;;1.63;100.00
74524;BME280;63074;44.696;10.358;2023-02-01T02:17:57;100439.25;;;1.86;100.00
74524;BME280;63074;44.696;10.358;2023-02-01T02:25:46;100438.88;;;1.97;100.00
74524;BME280;63074;44.696;10.358;2023-02-01T02:34:04;100436.28;;;2.28;100.00
74524;BME280;63074;44.696;10.358;2023-02-01T02:39:39;100433.34;;;2.54;100.00
74524;BME280;63074;44.696;10.358;2023-02-01T02:42:43;100446.72;;;2.30;100.00
74524;BME280;63074;44.696;10.358;2023-02-01T02:45:39;100450.88;;;2.24;100.00
74524;BME280;63074;44.696;10.358;2023-02-01T02:51:25;100449.22;;;2.23;100.00
74524;BME280;63074;44.696;10.358;2023-02-01T02:54:21;100444.09;;;2.22;100.00
74524;BME280;63074;44.696;10.358;2023-02-01T02:57:10;100444.44;;;2.19;100.00
74524;BME280;63074;44.696;10.358;2023-02-01T02:59:57;100436.34;;;2.12;100.00
74524;BME280;63074;44.696;10.358;2023-02-01T03:02:45;100434.69;;;2.50;100.00
74524;BME280;63074;44.696;10.358;2023-02-01T03:05:35;100443.13;;;2.15;100.00
74524;BME280;63074;44.696;10.358;2023-02-01T03:13:54;100442.63;;;2.11;100.00
74524;BME280;63074;44.696;10.358;2023-02-01T03:16:36;100451.88;;;2.23;100.00
74524;BME280;63074;44.696;10.358;2023-02-01T03:19:15;100439.50;;;2.08;100.00
74524;BME280;63074;44.696;10.358;2023-02-01T03:22:08;100443.44;;;2.20;100.00
74524;BME280;63074;44.696;10.358;2023-02-01T03:24:43;100456.22;;;2.16;100.00
74524;BME280;63074;44.696;10.358;2023-02-01T03:27:26;100459.88;;;2.15;100.00
74524;BME280;63074;44.696;10.358;2023-02-01T03:30:10;100451.31;;;1.89;100.00
74524;BME280;63074;44.696;10.358;2023-02-01T03:32:40;100451.19;;;1.74;100.00
74524;BME280;63074;44.696;10.358;2023-02-01T03:38:08;100455.13;;;1.86;100.00
74524;BME280;63074;44.696;10.358;2023-02-01T03:40:38;100454.66;;;1.75;100.00
74524;BME280;63074;44.696;10.358;2023-02-01T03:43:07;100448.44;;;1.43;100.00
74524;BME280;63074;44.696;10.358;2023-02-01T03:45:43;100452.22;;;1.24;100.00
74524;BME280;63074;44.696;10.358;2023-02-01T03:48:12;100442.13;;;1.36;100.00
74524;BME280;63074;44.696;10.358;2023-02-01T03:50:45;100443.78;;;0.96;100.00
74524;BME280;63074;44.696;10.358;2023-02-01T03:53:17;100440.47;;;1.35;100.00
74524;BME280;63074;44.696;10.358;2023-02-01T03:55:46;100438.91;;;1.81;100.00
74524;BME280;63074;44.696;10.358;2023-02-01T03:58:18;100444.13;;;1.26;100.00
74524;BME280;63074;44.696;10.358;2023-02-01T04:00:56;100445.22;;;1.80;100.00
74524;BME280;63074;44.696;10.358;2023-02-01T04:03:24;100449.09;;;2.09;100.00
74524;BME280;63074;44.696;10.358;2023-02-01T04:05:51;100448.56;;;2.21;100.00
74524;BME280;63074;44.696;10.358;2023-02-01T04:08:21;100448.56;;;2.21;100.00
74524;BME280;63074;44.696;10.358;2023-02-01T04:10:48;100441.16;;;2.09;100.00
74524;BME280;63074;44.696;10.358;2023-02-01T04:13:14;100441.25;;;1.76;100.00
74524;BME280;63074;44.696;10.358;2023-02-01T04:15:40;100449.06;;;1.53;100.00
74524;BME280;63074;44.696;10.358;2023-02-01T04:18:06;100454.34;;;0.96;100.00
74524;BME280;63074;44.696;10.358;2023-02-01T04:20:33;100449.72;;;0.90;100.00
74524;BME280;63074;44.696;10.358;2023-02-01T04:22:59;100445.97;;;0.43;100.00
74524;BME280;63074;44.696;10.358;2023-02-01T04:25:28;100444.00;;;0.45;100.00
74524;BME280;63074;44.696;10.358;2023-02-01T04:27:55;100451.19;;;0.77;100.00
74524;BME280;63074;44.696;10.358;2023-02-01T04:30:21;100449.91;;;1.13;100.00
74524;BME280;63074;44.696;10.358;2023-02-01T04:32:49;100446.38;;;0.72;100.00
74524;BME280;63074;44.696;10.358;2023-02-01T04:35:15;100442.59;;;0.91;100.00
74524;BME280;63074;44.696;10.358;2023-02-01T04:37:41;100438.31;;;0.98;100.00
74524;BME280;63074;44.696;10.358;2023-02-01T04:40:08;100436.34;;;1.08;100.00
74524;BME280;63074;44.696;10.358;2023-02-01T04:42:35;100435.81;;;0.88;100.00
74524;BME280;63074;44.696;10.358;2023-02-01T04:45:01;100437.97;;;0.77;100.00
74524;BME280;63074;44.696;10.358;2023-02-01T04:47:27;100426.94;;;1.14;100.00
74524;BME280;63074;44.696;10.358;2023-02-01T04:49:53;100424.59;;;1.19;100.00
74524;BME280;63074;44.696;10.358;2023-02-01T04:52:20;100429.81;;;1.84;100.00
74524;BME280;63074;44.696;10.358;2023-02-01T04:54:46;100419.03;;;1.77;100.00
74524;BME280;63074;44.696;10.358;2023-02-01T04:57:12;100423.06;;;1.57;100.00
74524;BME280;63074;44.696;10.358;2023-02-01T04:59:41;100429.34;;;1.72;100.00
74524;BME280;63074;44.696;10.358;2023-02-01T05:02:07;100420.88;;;1.77;100.00
74524;BME280;63074;44.696;10.358;2023-02-01T05:04:33;100424.50;;;1.76;100.00
74524;BME280;63074;44.696;10.358;2023-02-01T05:07:00;100419.63;;;1.24;100.00
74524;BME280;63074;44.696;10.358;2023-02-01T05:09:26;100423.94;;;1.00;100.00
74524;BME280;63074;44.696;10.358;2023-02-01T05:11:52;100422.28;;;1.32;100.00
74524;BME280;63074;44.696;10.358;2023-02-01T05:14:36;100417.28;;;1.45;100.00
74524;BME280;63074;44.696;10.358;2023-02-01T05:17:03;100426.25;;;1.20;100.00
74524;BME280;63074;44.696;10.358;2023-02-01T05:19:29;100420.28;;;1.01;100.00
74524;BME280;63074;44.696;10.358;2023-02-01T05:21:55;100427.72;;;1.22;100.00
74524;BME280;63074;44.696;10.358;2023-02-01T05:24:22;100424.91;;;0.91;100.00
74524;BME280;63074;44.696;10.358;2023-02-01T05:26:49;100420.63;;;0.82;100.00
74524;BME280;63074;44.696;10.358;2023-02-01T05:29:16;100423.88;;;0.68;100.00
74524;BME280;63074;44.696;10.358;2023-02-01T05:31:45;100429.19;;;0.76;100.00
74524;BME280;63074;44.696;10.358;2023-02-01T05:34:11;100433.19;;;0.96;100.00
74524;BME280;63074;44.696;10.358;2023-02-01T05:36:38;100431.88;;;1.00;100.00
74524;BME280;63074;44.696;10.358;2023-02-01T05:39:04;100433.47;;;0.69;100.00
74524;BME280;63074;44.696;10.358;2023-02-01T05:41:30;100441.13;;;1.21;100.00
74524;BME280;63074;44.696;10.358;2023-02-01T05:43:57;100429.88;;;1.02;100.00
74524;BME280;63074;44.696;10.358;2023-02-01T05:46:23;100430.88;;;1.10;100.00
74524;BME280;63074;44.696;10.358;2023-02-01T05:49:17;100431.72;;;1.26;100.00
74524;BME280;63074;44.696;10.358;2023-02-01T05:51:46;100435.53;;;1.40;100.00
74524;BME280;63074;44.696;10.358;2023-02-01T05:54:15;100438.47;;;1.61;100.00
74524;BME280;63074;44.696;10.358;2023-02-01T05:56:41;100433.84;;;1.55;100.00
74524;BME280;63074;44.696;10.358;2023-02-01T05:59:08;100436.47;;;1.55;100.00
74524;BME280;63074;44.696;10.358;2023-02-01T06:01:35;100440.47;;;1.27;100.00
74524;BME280;63074;44.696;10.358;2023-02-01T06:04:01;100439.50;;;1.36;100.00
74524;BME280;63074;44.696;10.358;2023-02-01T06:06:27;100440.69;;;0.43;100.00
74524;BME280;63074;44.696;10.358;2023-02-01T06:08:57;100442.41;;;0.68;100.00
74524;BME280;63074;44.696;10.358;2023-02-01T06:11:23;100447.19;;;0.14;100.00
74524;BME280;63074;44.696;10.358;2023-02-01T06:13:50;100442.88;;;0.63;100.00
74524;BME280;63074;44.696;10.358;2023-02-01T06:16:16;100443.44;;;0.99;100.00
74524;BME280;63074;44.696;10.358;2023-02-01T06:18:42;100445.84;;;0.52;100.00
74524;BME280;63074;44.696;10.358;2023-02-01T06:21:09;100442.63;;;0.99;100.00
74524;BME280;63074;44.696;10.358;2023-02-01T06:23:35;100450.38;;;0.84;100.00
74524;BME280;63074;44.696;10.358;2023-02-01T06:26:03;100444.44;;;0.98;100.00
74524;BME280;63074;44.696;10.358;2023-02-01T06:28:31;100452.03;;;0.85;100.00
74524;BME280;63074;44.696;10.358;2023-02-01T06:31:02;100451.84;;;0.87;100.00
74524;BME280;63074;44.696;10.358;2023-02-01T06:33:28;100451.88;;;0.95;100.00
74524;BME280;63074;44.696;10.358;2023-02-01T06:35:59;100450.22;;;0.86;100.00
74524;BME280;63074;44.696;10.358;2023-02-01T06:38:26;100446.06;;;0.75;100.00
74524;BME280;63074;44.696;10.358;2023-02-01T06:40:57;100446.59;;;1.03;100.00
74524;BME280;63074;44.696;10.358;2023-02-01T06:43:27;100451.91;;;1.11;100.00
74524;BME280;63074;44.696;10.358;2023-02-01T06:45:58;100446.44;;;1.05;100.00
74524;BME280;63074;44.696;10.358;2023-02-01T06:48:25;100448.44;;;1.35;100.00
74524;BME280;63074;44.696;10.358;2023-02-01T06:50:51;100447.56;;;1.59;100.00
74524;BME280;63074;44.696;10.358;2023-02-01T06:53:17;100454.31;;;1.86;100.00
74524;BME280;63074;44.696;10.358;2023-02-01T06:55:52;100444.63;;;1.29;100.00
74524;BME280;63074;44.696;10.358;2023-02-01T06:58:18;100451.72;;;1.05;100.00
74524;BME280;63074;44.696;10.358;2023-02-01T07:00:45;100454.34;;;0.80;100.00
74524;BME280;63074;44.696;10.358;2023-02-01T07:03:11;100455.91;;;0.49;100.00
74524;BME280;63074;44.696;10.358;2023-02-01T07:05:37;100449.47;;;0.51;100.00
74524;BME280;63074;44.696;10.358;2023-02-01T07:08:03;100447.06;;;0.98;100.00
74524;BME280;63074;44.696;10.358;2023-02-01T07:10:30;100445.28;;;1.07;100.00
74524;BME280;63074;44.696;10.358;2023-02-01T07:12:59;100453.38;;;1.22;100.00
74524;BME280;63074;44.696;10.358;2023-02-01T07:15:26;100460.16;;;1.32;100.00
74524;BME280;63074;44.696;10.358;2023-02-01T07:17:54;100463.63;;;1.49;100.00
74524;BME280;63074;44.696;10.358;2023-02-01T07:20:21;100459.00;;;1.67;100.00
74524;BME280;63074;44.696;10.358;2023-02-01T07:22:47;100458.22;;;2.14;100.00
74524;BME280;63074;44.696;10.358;2023-02-01T07:25:13;100453.75;;;2.07;100.00
74524;BME280;63074;44.696;10.358;2023-02-01T07:27:39;100456.03;;;2.26;100.00
74524;BME280;63074;44.696;10.358;2023-02-01T07:30:06;100457.34;;;2.30;100.00
74524;BME280;63074;44.696;10.358;2023-02-01T07:32:33;100457.03;;;2.25;100.00
74524;BME280;63074;44.696;10.358;2023-02-01T07:34:59;100453.16;;;2.35;100.00
74524;BME280;63074;44.696;10.358;2023-02-01T07:37:25;100446.47;;;2.48;100.00
74524;BME280;63074;44.696;10.358;2023-02-01T07:39:52;100443.06;;;2.62;100.00
74524;BME280;63074;44.696;10.358;2023-02-01T07:42:18;100429.25;;;2.44;100.00
74524;BME280;63074;44.696;10.358;2023-02-01T07:44:45;100432.81;;;2.28;100.00
74524;BME280;63074;44.696;10.358;2023-02-01T07:47:11;100426.53;;;2.21;100.00
74524;BME280;63074;44.696;10.358;2023-02-01T07:49:37;100419.84;;;2.33;100.00
74524;BME280;63074;44.696;10.358;2023-02-01T07:52:03;100420.09;;;2.77;100.00
74524;BME280;63074;44.696;10.358;2023-02-01T07:54:29;100427.72;;;2.80;100.00
74524;BME280;63074;44.696;10.358;2023-02-01T07:56:56;100426.84;;;2.88;100.00
74524;BME280;63074;44.696;10.358;2023-02-01T07:59:22;100432.03;;;3.04;100.00
74524;BME280;63074;44.696;10.358;2023-02-01T08:01:49;100426.41;;;3.22;100.00
74524;BME280;63074;44.696;10.358;2023-02-01T08:04:15;100437.13;;;3.28;100.00
74524;BME280;63074;44.696;10.358;2023-02-01T08:06:41;100440.31;;;3.24;100.00
74524;BME280;63074;44.696;10.358;2023-02-01T08:09:08;100449.59;;;2.82;100.00
74524;BME280;63074;44.696;10.358;2023-02-01T08:11:36;100461.59;;;2.70;100.00
74524;BME280;63074;44.696;10.358;2023-02-01T08:14:04;100466.41;;;2.97;100.00
74524;BME280;63074;44.696;10.358;2023-02-01T08:16:31;100472.16;;;3.09;100.00
74524;BME280;63074;44.696;10.358;2023-02-01T08:18:57;100470.75;;;2.90;100.00
74524;BME280;63074;44.696;10.358;2023-02-01T08:21:25;100484.47;;;2.40;100.00
74524;BME280;63074;44.696;10.358;2023-02-01T08:23:52;100482.41;;;2.58;100.00
74524;BME280;63074;44.696;10.358;2023-02-01T08:26:21;100477.38;;;2.94;100.00
74524;BME280;63074;44.696;10.358;2023-02-01T08:28:56;100473.84;;;3.48;100.00
74524;BME280;63074;44.696;10.358;2023-02-01T08:31:24;100472.00;;;3.48;100.00
74524;BME280;63074;44.696;10.358;2023-02-01T08:33:53;100472.06;;;3.63;100.00
74524;BME280;63074;44.696;10.358;2023-02-01T08:36:21;100474.47;;;3.72;100.00
74524;BME280;63074;44.696;10.358;2023-02-01T08:38:47;100482.63;;;3.71;100.00
74524;BME280;63074;44.696;10.358;2023-02-01T08:41:16;100481.63;;;3.72;100.00
74524;BME280;63074;44.696;10.358;2023-02-01T08:43:43;100497.38;;;3.73;100.00
74524;BME280;63074;44.696;10.358;2023-02-01T08:46:10;100494.97;;;3.79;100.00
74524;BME280;63074;44.696;10.358;2023-02-01T08:48:37;100510.69;;;3.88;100.00
74524;BME280;63074;44.696;10.358;2023-02-01T08:51:06;100522.44;;;3.94;100.00
74524;BME280;63074;44.696;10.358;2023-02-01T08:53:34;100531.31;;;3.86;100.00
74524;BME280;63074;44.696;10.358;2023-02-01T08:56:02;100521.78;;;3.92;100.00
74524;BME280;63074;44.696;10.358;2023-02-01T08:58:28;100520.44;;;4.11;100.00
74524;BME280;63074;44.696;10.358;2023-02-01T09:00:54;100511.72;;;4.17;100.00
74524;BME280;63074;44.696;10.358;2023-02-01T09:03:21;100495.94;;;4.15;100.00
74524;BME280;63074;44.696;10.358;2023-02-01T09:05:47;100492.94;;;4.03;100.00
74524;BME280;63074;44.696;10.358;2023-02-01T09:08:14;100515.31;;;4.24;100.00
74524;BME280;63074;44.696;10.358;2023-02-01T09:10:41;100522.19;;;4.48;100.00
74524;BME280;63074;44.696;10.358;2023-02-01T09:13:08;100528.91;;;4.58;100.00
74524;BME280;63074;44.696;10.358;2023-02-01T09:15:35;100532.53;;;4.72;100.00
74524;BME280;63074;44.696;10.358;2023-02-01T09:18:02;100533.91;;;4.83;100.00
74524;BME280;63074;44.696;10.358;2023-02-01T09:20:28;100534.59;;;4.91;100.00
74524;BME280;63074;44.696;10.358;2023-02-01T09:22:56;100549.22;;;4.95;100.00
74524;BME280;63074;44.696;10.358;2023-02-01T09:25:22;100551.78;;;5.03;100.00
74524;BME280;63074;44.696;10.358;2023-02-01T09:27:48;100549.28;;;5.17;100.00
74524;BME280;63074;44.696;10.358;2023-02-01T09:30:14;100546.03;;;5.21;100.00
74524;BME280;63074;44.696;10.358;2023-02-01T09:32:41;100540.03;;;5.34;100.00
74524;BME280;63074;44.696;10.358;2023-02-01T09:35:07;100549.41;;;5.51;100.00
74524;BME280;63074;44.696;10.358;2023-02-01T09:37:34;100549.47;;;5.58;100.00
74524;BME280;63074;44.696;10.358;2023-02-01T09:40:00;100535.66;;;5.48;100.00
74524;BME280;63074;44.696;10.358;2023-02-01T09:47:57;100542.91;;;5.82;100.00
74524;BME280;63074;44.696;10.358;2023-02-01T09:50:39;100544.53;;;5.97;100.00
74524;BME280;63074;44.696;10.358;2023-02-01T09:53:15;100542.00;;;5.89;100.00
74524;BME280;63074;44.696;10.358;2023-02-01T09:55:49;100540.03;;;5.76;100.00
74524;BME280;63074;44.696;10.358;2023-02-01T09:58:32;100540.66;;;6.00;100.00
74524;BME280;63074;44.696;10.358;2023-02-01T10:01:03;100545.81;;;6.08;100.00
74524;BME280;63074;44.696;10.358;2023-02-01T10:03:34;100541.81;;;6.19;100.00
74524;BME280;63074;44.696;10.358;2023-02-01T10:09:15;100532.06;;;6.32;100.00
74524;BME280;63074;44.696;10.358;2023-02-01T10:14:39;100532.19;;;6.59;100.00
74524;BME280;63074;44.696;10.358;2023-02-01T10:20:20;100522.69;;;6.50;100.00
74524;BME280;63074;44.696;10.358;2023-02-01T10:23:05;100515.56;;;6.57;100.00
74524;BME280;63074;44.696;10.358;2023-02-01T10:28:14;100522.25;;;6.94;100.00
74524;BME280;63074;44.696;10.358;2023-02-01T10:30:46;100507.28;;;6.99;100.00
74524;BME280;63074;44.696;10.358;2023-02-01T10:33:49;100508.53;;;7.03;100.00
74524;BME280;63074;44.696;10.358;2023-02-01T10:36:31;100506.94;;;7.16;100.00
74524;BME280;63074;44.696;10.358;2023-02-01T10:38:59;100503.06;;;7.31;100.00
74524;BME280;63074;44.696;10.358;2023-02-01T10:41:38;100509.84;;;7.21;100.00
74524;BME280;63074;44.696;10.358;2023-02-01T10:44:12;100512.91;;;7.24;100.00
74524;BME280;63074;44.696;10.358;2023-02-01T10:46:40;100506.78;;;7.37;100.00
74524;BME280;63074;44.696;10.358;2023-02-01T10:49:13;100503.38;;;7.02;100.00
74524;BME280;63074;44.696;10.358;2023-02-01T10:52:02;100492.28;;;6.92;100.00
74524;BME280;63074;44.696;10.358;2023-02-01T10:54:37;100488.44;;;7.14;100.00
74524;BME280;63074;44.696;10.358;2023-02-01T10:57:17;100483.50;;;7.31;100.00
74524;BME280;63074;44.696;10.358;2023-02-01T10:59:45;100487.66;;;7.40;100.00
74524;BME280;63074;44.696;10.358;2023-02-01T11:02:28;100484.38;;;7.64;100.00
74524;BME280;63074;44.696;10.358;2023-02-01T11:05:09;100490.72;;;7.37;100.00
74524;BME280;63074;44.696;10.358;2023-02-01T11:07:38;100479.63;;;7.53;100.00
74524;BME280;63074;44.696;10.358;2023-02-01T11:10:08;100470.38;;;7.75;100.00
74524;BME280;63074;44.696;10.358;2023-02-01T11:12:54;100478.81;;;7.59;100.00
74524;BME280;63074;44.696;10.358;2023-02-01T11:15:23;100487.66;;;7.47;100.00
74524;BME280;63074;44.696;10.358;2023-02-01T11:17:51;100490.53;;;7.65;100.00
74524;BME280;63074;44.696;10.358;2023-02-01T11:20:19;100484.78;;;7.61;100.00
74524;BME280;63074;44.696;10.358;2023-02-01T11:22:52;100487.03;;;8.04;100.00
74524;BME280;63074;44.696;10.358;2023-02-01T11:25:19;100482.91;;;8.08;100.00
74524;BME280;63074;44.696;10.358;2023-02-01T11:27:48;100475.59;;;8.55;100.00
74524;BME280;63074;44.696;10.358;2023-02-01T11:30:29;100483.53;;;8.74;100.00
74524;BME280;63074;44.696;10.358;2023-02-01T11:32:57;100488.88;;;8.81;100.00
74524;BME280;63074;44.696;10.358;2023-02-01T11:35:23;100487.53;;;8.65;100.00
74524;BME280;63074;44.696;10.358;2023-02-01T11:37:56;100480.59;;;8.89;100.00
74524;BME280;63074;44.696;10.358;2023-02-01T11:40:35;100475.66;;;8.93;100.00
74524;BME280;63074;44.696;10.358;2023-02-01T11:43:26;100479.38;;;9.23;100.00
74524;BME280;63074;44.696;10.358;2023-02-01T11:45:59;100477.53;;;9.24;100.00
74524;BME280;63074;44.696;10.358;2023-02-01T11:48:28;100482.94;;;9.17;100.00
74524;BME280;63074;44.696;10.358;2023-02-01T11:56:40;100487.59;;;9.53;100.00
74524;BME280;63074;44.696;10.358;2023-02-01T12:05:18;100463.09;;;10.18;100.00
74524;BME280;63074;44.696;10.358;2023-02-01T12:08:21;100456.88;;;10.60;100.00
74524;BME280;63074;44.696;10.358;2023-02-01T12:14:28;100450.66;;;10.60;100.00
74524;BME280;63074;44.696;10.358;2023-02-01T12:22:33;100429.47;;;11.88;100.00
74524;BME280;63074;44.696;10.358;2023-02-01T12:39:27;100432.50;;;22.51;45.96
74524;BME280;63074;44.696;10.358;2023-02-01T12:42:18;100421.81;;;24.42;40.83
74524;BME280;63074;44.696;10.358;2023-02-01T12:44:54;100423.19;;;25.57;39.08
74524;BME280;63074;44.696;10.358;2023-02-01T12:50:17;100410.94;;;26.98;34.70
74524;BME280;63074;44.696;10.358;2023-02-01T12:52:49;100402.13;;;26.84;33.64
74524;BME280;63074;44.696;10.358;2023-02-01T12:55:27;100399.34;;;25.96;33.61
74524;BME280;63074;44.696;10.358;2023-02-01T12:58:14;100393.00;;;25.95;33.79
74524;BME280;63074;44.696;10.358;2023-02-01T13:03:37;100387.72;;;28.59;31.55
74524;BME280;63074;44.696;10.358;2023-02-01T13:11:28;100380.53;;;26.36;33.26
74524;BME280;63074;44.696;10.358;2023-02-01T13:16:51;100391.56;;;29.63;29.19
74524;BME280;63074;44.696;10.358;2023-02-01T13:21:55;100385.03;;;31.04;26.18
74524;BME280;63074;44.696;10.358;2023-02-01T13:24:53;100380.06;;;32.20;26.05
74524;BME280;63074;44.696;10.358;2023-02-01T13:27:22;100380.38;;;32.94;24.37
74524;BME280;63074;44.696;10.358;2023-02-01T13:35:46;100361.50;;;33.44;23.61
74524;BME280;63074;44.696;10.358;2023-02-01T13:43:38;100368.88;;;31.67;25.10
74524;BME280;63074;44.696;10.358;2023-02-01T13:46:11;100364.63;;;31.96;25.01
74524;BME280;63074;44.696;10.358;2023-02-01T13:48:48;100362.25;;;32.47;24.61
74524;BME280;63074;44.696;10.358;2023-02-01T13:51:32;100362.84;;;33.23;23.41
74524;BME280;63074;44.696;10.358;2023-02-01T13:54:04;100361.25;;;31.22;25.40
74524;BME280;63074;44.696;10.358;2023-02-01T13:56:46;100363.50;;;32.80;24.00
74524;BME280;63074;44.696;10.358;2023-02-01T13:59:49;100374.00;;;32.90;23.94
74524;BME280;63074;44.696;10.358;2023-02-01T14:05:54;100373.97;;;32.11;24.20
74524;BME280;63074;44.696;10.358;2023-02-01T14:08:25;100370.00;;;33.25;23.69
74524;BME280;63074;44.696;10.358;2023-02-01T14:11:51;100372.72;;;31.40;25.33
74524;BME280;63074;44.696;10.358;2023-02-01T14:17:37;100375.63;;;31.47;25.39
74524;BME280;63074;44.696;10.358;2023-02-01T14:21:22;100366.59;;;31.53;24.99
74524;BME280;63074;44.696;10.358;2023-02-01T14:30:15;100360.59;;;28.89;28.00
74524;BME280;63074;44.696;10.358;2023-02-01T14:32:50;100353.84;;;28.86;28.59
74524;BME280;63074;44.696;10.358;2023-02-01T14:35:41;100349.34;;;27.27;30.20
74524;BME280;63074;44.696;10.358;2023-02-01T14:38:21;100337.00;;;25.18;32.76
74524;BME280;63074;44.696;10.358;2023-02-01T14:41:25;100340.53;;;23.09;35.62
74524;BME280;63074;44.696;10.358;2023-02-01T14:44:32;100339.69;;;22.36;38.00
74524;BME280;63074;44.696;10.358;2023-02-01T14:50:18;100332.34;;;19.75;43.52
74524;BME280;63074;44.696;10.358;2023-02-01T15:04:26;100314.50;;;18.08;52.14
74524;BME280;63074;44.696;10.358;2023-02-01T15:06:55;100321.94;;;17.62;54.97
74524;BME280;63074;44.696;10.358;2023-02-01T15:09:36;100323.34;;;17.39;56.12
74524;BME280;63074;44.696;10.358;2023-02-01T15:14:47;100317.22;;;16.25;62.10
74524;BME280;63074;44.696;10.358;2023-02-01T15:17:22;100308.66;;;15.81;64.41
74524;BME280;63074;44.696;10.358;2023-02-01T15:19:57;100308.25;;;15.57;68.51
74524;BME280;63074;44.696;10.358;2023-02-01T15:22:29;100305.75;;;15.13;70.99